createdAt,value
2022-12-13T00:01:47.739Z,311.80
2022-12-13T00:04:18.051Z,375.13
2022-12-13T00:06:46.636Z,376.20
2022-12-13T00:09:16.172Z,376.27
2022-12-13T00:11:44.894Z,381.10
2022-12-13T00:14:14.911Z,368.67
2022-12-13T00:16:46.945Z,386.00
2022-12-13T00:19:17.680Z,409.80
2022-12-13T00:21:46.484Z,419.50
2022-12-13T00:24:14.891Z,423.30
2022-12-13T00:26:43.244Z,417.93
2022-12-13T00:29:13.085Z,441.43
2022-12-13T00:34:31.923Z,428.07
2022-12-13T00:37:04.736Z,406.70
2022-12-13T00:39:33.242Z,393.13
2022-12-13T00:42:01.623Z,428.20
2022-12-13T00:44:31.187Z,433.30
2022-12-13T00:46:59.808Z,449.43
2022-12-13T00:49:28.261Z,433.20
2022-12-13T00:51:58.062Z,439.17
2022-12-13T00:54:26.494Z,446.83
2022-12-13T00:56:55.257Z,449.20
2022-12-13T00:59:24.642Z,441.50
2022-12-13T01:01:53.462Z,439.83
2022-12-13T01:04:21.953Z,460.43
2022-12-13T01:06:51.473Z,445.50
2022-12-13T01:09:22.812Z,422.00
2022-12-13T01:11:52.085Z,450.97
2022-12-13T01:14:21.046Z,414.80
2022-12-13T01:16:49.569Z,454.10
2022-12-13T01:19:18.150Z,424.00
2022-12-13T01:21:46.573Z,411.27
2022-12-13T01:24:15.171Z,418.60
2022-12-13T01:26:44.921Z,429.00
2022-12-13T01:29:13.341Z,386.30
2022-12-13T01:31:42.146Z,421.53
2022-12-13T01:34:12.977Z,420.73
2022-12-13T01:36:42.577Z,445.13
2022-12-13T01:39:15.276Z,441.00
2022-12-13T01:41:46.166Z,471.23
2022-12-13T01:44:51.964Z,443.47
2022-12-13T01:47:21.966Z,455.70
2022-12-13T01:49:50.706Z,436.17
2022-12-13T01:52:19.722Z,442.37
2022-12-13T01:54:50.084Z,433.17
2022-12-13T01:57:21.981Z,464.47
2022-12-13T01:59:51.019Z,430.37
2022-12-13T02:02:19.677Z,403.47
2022-12-13T02:04:54.375Z,444.17
2022-12-13T02:07:28.015Z,436.37
2022-12-13T02:09:58.894Z,450.40
2022-12-13T02:12:30.838Z,445.23
2022-12-13T02:15:00.867Z,434.20
2022-12-13T02:17:43.914Z,439.57
2022-12-13T02:20:49.990Z,480.70
2022-12-13T02:23:38.879Z,417.50
2022-12-13T02:26:36.875Z,433.37
2022-12-13T02:29:30.918Z,451.53
2022-12-13T02:32:03.571Z,476.70
2022-12-13T02:34:37.891Z,446.03
2022-12-13T02:37:17.675Z,481.08
2022-12-13T02:39:52.033Z,418.47
2022-12-13T02:42:23.039Z,413.00
2022-12-13T02:44:54.854Z,401.37
2022-12-13T02:47:26.669Z,411.97
2022-12-13T02:49:59.300Z,400.97
2022-12-13T02:52:30.285Z,410.37
2022-12-13T02:54:59.009Z,443.20
2022-12-13T02:57:32.383Z,448.10
2022-12-13T03:00:03.441Z,472.07
2022-12-13T03:02:41.401Z,435.33
2022-12-13T03:05:36.069Z,459.60
2022-12-13T03:08:13.929Z,454.33
2022-12-13T03:10:56.605Z,448.13
2022-12-13T03:13:37.813Z,445.93
2022-12-13T03:16:22.881Z,459.90
2022-12-13T03:18:53.978Z,443.53
2022-12-13T03:21:22.547Z,428.20
2022-12-13T03:23:51.202Z,448.47
2022-12-13T03:26:23.335Z,432.57
2022-12-13T03:28:51.942Z,455.27
2022-12-13T03:31:21.312Z,430.77
2022-12-13T03:33:49.804Z,410.53
2022-12-13T03:36:20.128Z,380.50
2022-12-13T03:38:52.308Z,377.20
2022-12-13T03:41:23.092Z,400.90
2022-12-13T03:43:51.561Z,391.77
2022-12-13T03:46:19.997Z,372.03
2022-12-13T03:48:48.441Z,362.90
2022-12-13T03:51:16.868Z,399.00
2022-12-13T03:53:46.771Z,381.83
2022-12-13T03:56:15.226Z,381.17
2022-12-13T03:58:43.691Z,379.07
2022-12-13T04:01:13.731Z,421.83
2022-12-13T04:03:44.933Z,407.23
2022-12-13T04:06:21.589Z,401.47
2022-12-13T04:08:53.156Z,404.63
2022-12-13T04:11:42.950Z,413.27
2022-12-13T04:14:12.158Z,415.07
2022-12-13T04:16:40.609Z,413.53
2022-12-13T04:19:08.944Z,391.10
2022-12-13T04:21:37.311Z,392.73
2022-12-13T04:24:07.471Z,372.40
2022-12-13T04:26:35.788Z,378.20
2022-12-13T04:29:04.157Z,384.33
2022-12-13T04:31:32.660Z,372.73
2022-12-13T04:34:01.027Z,392.50
2022-12-13T04:36:31.910Z,389.87
2022-12-13T04:39:01.488Z,401.00
2022-12-13T04:41:35.649Z,385.70
2022-12-13T04:44:05.173Z,371.33
2022-12-13T04:46:33.642Z,384.27
2022-12-13T04:49:02.520Z,403.83
2022-12-13T04:51:31.303Z,428.53
2022-12-13T04:54:12.990Z,404.83
2022-12-13T04:56:49.348Z,443.00
2022-12-13T04:59:18.036Z,405.33
2022-12-13T05:01:46.467Z,391.27
2022-12-13T05:04:14.822Z,408.37
2022-12-13T05:06:43.255Z,391.83
2022-12-13T05:09:11.782Z,362.57
2022-12-13T05:11:45.431Z,388.47
2022-12-13T05:14:23.313Z,383.48
2022-12-13T05:16:53.213Z,389.90
2022-12-13T05:19:21.666Z,420.73
2022-12-13T05:22:01.866Z,386.90
2022-12-13T05:24:31.145Z,368.53
2022-12-13T05:26:59.765Z,416.37
2022-12-13T05:29:29.883Z,405.80
2022-12-13T05:31:58.968Z,403.47
2022-12-13T05:34:27.840Z,384.50
2022-12-13T05:36:58.162Z,334.83
2022-12-13T05:39:28.828Z,379.23
2022-12-13T05:42:01.296Z,460.63
2022-12-13T05:44:32.366Z,395.83
2022-12-13T05:47:01.976Z,372.97
2022-12-13T05:49:31.399Z,390.60
2022-12-13T05:51:59.905Z,394.03
2022-12-13T05:54:28.503Z,381.60
2022-12-13T05:56:56.966Z,370.40
2022-12-13T05:59:25.372Z,384.43
2022-12-13T06:01:55.180Z,411.83
2022-12-13T06:04:23.792Z,408.17
2022-12-13T06:06:52.554Z,393.97
2022-12-13T06:09:21.433Z,417.30
2022-12-13T06:11:50.091Z,375.70
2022-12-13T06:14:22.427Z,416.23
2022-12-13T06:16:52.486Z,408.90
2022-12-13T06:19:23.060Z,428.17
2022-12-13T06:21:51.547Z,404.37
2022-12-13T06:24:21.010Z,385.93
2022-12-13T06:26:50.118Z,412.30
2022-12-13T06:29:23.496Z,390.63
2022-12-13T06:32:02.188Z,470.93
2022-12-13T06:34:34.054Z,361.33
2022-12-13T06:37:02.877Z,461.23
2022-12-13T06:39:38.923Z,404.07
2022-12-13T06:42:08.597Z,445.60
2022-12-13T06:44:37.115Z,397.47
2022-12-13T06:47:11.676Z,432.87
2022-12-13T06:49:44.565Z,399.50
2022-12-13T06:52:14.589Z,398.37
2022-12-13T06:54:43.287Z,367.13
2022-12-13T06:57:12.127Z,376.07
2022-12-13T06:59:41.340Z,346.70
2022-12-13T07:02:25.114Z,410.33
2022-12-13T07:04:56.343Z,392.02
2022-12-13T07:07:25.820Z,402.27
2022-12-13T07:09:54.689Z,420.80
2022-12-13T07:12:23.151Z,381.83
2022-12-13T07:14:51.666Z,391.27
2022-12-13T07:17:33.037Z,365.50
2022-12-13T07:20:07.878Z,335.17
2022-12-13T07:22:42.943Z,354.90
2022-12-13T07:25:27.470Z,362.30
2022-12-13T07:28:01.627Z,360.77
2022-12-13T07:30:31.739Z,361.33
2022-12-13T07:33:00.285Z,360.03
2022-12-13T07:35:30.668Z,349.90
2022-12-13T07:37:59.151Z,364.20
2022-12-13T07:40:28.142Z,309.70
2022-12-13T07:42:58.751Z,349.77
2022-12-13T07:45:27.483Z,335.57
2022-12-13T07:47:55.939Z,323.23
2022-12-13T07:50:25.763Z,347.57
2022-12-13T07:52:55.726Z,350.87
2022-12-13T07:55:33.445Z,311.80
2022-12-13T07:58:07.058Z,423.80
2022-12-13T08:00:35.855Z,315.90
2022-12-13T08:03:04.387Z,282.20
2022-12-13T08:05:38.157Z,368.27
2022-12-13T08:08:11.738Z,291.07
2022-12-13T08:10:40.542Z,317.60
2022-12-13T08:13:08.974Z,287.63
2022-12-13T08:15:37.422Z,288.83
2022-12-13T08:18:06.466Z,302.60
2022-12-13T08:20:34.907Z,271.50
2022-12-13T08:23:03.294Z,270.33
2022-12-13T08:25:33.108Z,274.67
2022-12-13T08:28:02.644Z,292.03
2022-12-13T08:30:32.836Z,288.83
2022-12-13T08:33:05.181Z,266.10
2022-12-13T08:35:35.352Z,267.33
2022-12-13T08:38:04.462Z,239.00
2022-12-13T08:40:34.891Z,265.70
2022-12-13T08:43:03.700Z,211.23
2022-12-13T08:45:34.174Z,224.97
2022-12-13T08:48:03.218Z,200.20
2022-12-13T08:50:32.189Z,209.50
2022-12-13T08:53:00.617Z,182.40
2022-12-13T08:55:31.717Z,200.53
2022-12-13T08:58:08.323Z,211.97
2022-12-13T09:00:37.416Z,208.87
2022-12-13T09:03:06.358Z,199.33
2022-12-13T09:05:38.978Z,214.47
2022-12-13T09:08:24.410Z,196.60
2022-12-13T09:11:00.443Z,169.80
2022-12-13T09:13:31.916Z,224.13
2022-12-13T09:16:04.767Z,179.57
2022-12-13T09:18:36.186Z,223.00
2022-12-13T09:21:11.482Z,164.27
2022-12-13T09:23:46.130Z,192.70
2022-12-13T09:26:16.761Z,219.60
2022-12-13T09:28:46.608Z,190.93
2022-12-13T09:31:16.418Z,168.67
2022-12-13T09:33:45.239Z,177.30
2022-12-13T09:36:15.443Z,150.73
2022-12-13T09:38:44.130Z,151.37
2022-12-13T09:41:20.361Z,154.30
2022-12-13T09:44:01.131Z,179.85
2022-12-13T09:46:34.966Z,194.33
2022-12-13T09:49:15.958Z,171.93
2022-12-13T09:52:10.258Z,166.37
2022-12-13T09:54:48.152Z,209.97
2022-12-13T09:57:32.062Z,169.10
2022-12-13T10:00:06.371Z,142.60
2022-12-13T10:02:35.638Z,172.80
2022-12-13T10:05:22.594Z,142.53
2022-12-13T10:07:54.090Z,190.50
2022-12-13T10:10:22.551Z,168.37
2022-12-13T10:12:55.974Z,169.73
2022-12-13T10:15:26.275Z,145.33
2022-12-13T10:17:55.265Z,141.70
2022-12-13T10:20:26.105Z,144.87
2022-12-13T10:23:33.200Z,158.13
2022-12-13T10:25:51.422Z,184.07
2022-12-13T10:28:25.621Z,175.60
2022-12-13T10:30:55.745Z,114.75
2022-12-13T10:33:27.336Z,126.03
2022-12-13T10:36:10.406Z,198.97
2022-12-13T10:38:40.889Z,168.17
2022-12-13T10:41:30.029Z,248.57
2022-12-13T10:44:21.387Z,260.40
2022-12-13T10:46:53.748Z,128.07
2022-12-13T10:49:24.195Z,113.47
2022-12-13T10:51:54.278Z,147.75
2022-12-13T10:54:29.143Z,114.45
2022-12-13T10:57:07.935Z,168.65
2022-12-13T10:59:37.762Z,182.25
2022-12-13T11:02:31.565Z,163.27
2022-12-13T11:05:00.832Z,174.95
2022-12-13T11:07:31.244Z,154.20
2022-12-13T11:10:05.091Z,139.07
2022-12-13T11:12:34.854Z,147.93
2022-12-13T11:15:06.191Z,137.67
2022-12-13T11:17:40.707Z,184.25
2022-12-13T11:20:18.795Z,187.57
2022-12-13T11:22:47.380Z,128.80
2022-12-13T11:25:22.954Z,167.35
2022-12-13T11:28:03.355Z,135.63
2022-12-13T11:30:38.047Z,166.05
2022-12-13T11:35:49.981Z,201.15
2022-12-13T11:38:28.203Z,209.18
2022-12-13T11:41:00.180Z,182.73
2022-12-13T11:43:33.656Z,163.70
2022-12-13T11:46:05.203Z,200.67
2022-12-13T11:48:43.203Z,186.60
2022-12-13T11:51:14.205Z,155.10
2022-12-13T11:53:50.972Z,174.63
2022-12-13T11:56:25.521Z,186.27
2022-12-13T11:59:04.983Z,276.42
2022-12-13T12:01:44.445Z,176.30
2022-12-13T12:04:24.222Z,212.32
2022-12-13T12:06:55.812Z,194.18
2022-12-13T12:09:27.018Z,202.85
2022-12-13T12:12:00.177Z,215.95
2022-12-13T12:14:39.136Z,200.75
2022-12-13T12:17:07.630Z,238.77
2022-12-13T12:19:39.726Z,238.40
2022-12-13T12:22:17.088Z,229.70
2022-12-13T12:24:56.350Z,217.23
2022-12-13T12:27:33.062Z,220.75
2022-12-13T12:30:22.852Z,224.32
2022-12-13T12:33:00.334Z,231.48
2022-12-13T12:35:59.878Z,232.35
2022-12-13T12:38:53.774Z,219.75
2022-12-13T12:41:32.609Z,240.25
2022-12-13T12:44:07.003Z,222.25
2022-12-13T12:47:18.993Z,217.25
2022-12-13T12:50:01.928Z,209.23
2022-12-13T12:52:40.770Z,215.02
2022-12-13T12:55:15.962Z,212.45
2022-12-13T12:57:52.876Z,232.10
2022-12-13T13:00:23.004Z,212.38
2022-12-13T13:03:01.505Z,215.52
2022-12-13T13:05:33.769Z,194.67
2022-12-13T13:08:10.663Z,204.98
2022-12-13T13:10:39.912Z,202.88
2022-12-13T13:13:14.648Z,244.50
2022-12-13T13:16:02.079Z,208.75
2022-12-13T13:18:50.416Z,180.98
2022-12-13T13:21:46.254Z,256.00
2022-12-13T13:24:21.752Z,205.18
2022-12-13T13:26:52.245Z,170.93
2022-12-13T13:29:31.226Z,214.60
2022-12-13T13:32:03.071Z,214.25
2022-12-13T13:34:33.744Z,215.07
2022-12-13T13:37:03.290Z,194.00
2022-12-13T13:39:58.602Z,230.50
2022-12-13T13:42:27.585Z,190.38
2022-12-13T13:45:20.688Z,176.32
2022-12-13T13:48:14.901Z,191.25
2022-12-13T13:51:13.432Z,133.30
2022-12-13T13:54:12.287Z,141.98
2022-12-13T13:57:05.350Z,143.32
2022-12-13T14:00:15.863Z,170.77
2022-12-13T14:03:34.211Z,166.75
2022-12-13T14:06:36.576Z,219.52
2022-12-13T14:09:28.604Z,180.75
2022-12-13T14:12:24.783Z,183.43
2022-12-13T14:15:29.616Z,171.52
2022-12-13T14:18:35.384Z,174.60
2022-12-13T14:23:50.330Z,180.98
2022-12-13T14:26:35.147Z,246.25
2022-12-13T14:29:10.879Z,197.00
2022-12-13T14:31:43.147Z,206.10
2022-12-13T14:34:21.170Z,199.50
2022-12-13T14:36:57.630Z,187.82
2022-12-13T14:39:29.361Z,189.75
2022-12-13T14:41:58.975Z,198.77
2022-12-13T14:44:30.122Z,180.45
2022-12-13T14:47:00.915Z,225.93
2022-12-13T14:49:32.335Z,197.00
2022-12-13T14:52:03.649Z,200.38
2022-12-13T14:54:39.192Z,207.85
2022-12-13T14:57:07.876Z,196.38
2022-12-13T14:59:38.784Z,207.85
2022-12-13T15:02:07.359Z,199.95
2022-12-13T15:04:37.976Z,197.13
2022-12-13T15:07:09.490Z,191.77
2022-12-13T15:09:39.832Z,204.68
2022-12-13T15:12:15.366Z,200.27
2022-12-13T15:15:00.716Z,195.38
2022-12-13T15:17:35.275Z,201.18
2022-12-13T15:20:12.208Z,251.18
2022-12-13T15:22:40.801Z,208.35
2022-12-13T15:25:19.310Z,202.25
2022-12-13T15:27:49.923Z,202.25
2022-12-13T15:30:21.537Z,196.52
2022-12-13T15:33:48.523Z,200.60
2022-12-13T15:36:18.937Z,209.80
2022-12-13T15:38:52.107Z,194.43
2022-12-13T15:41:23.533Z,212.52
2022-12-13T15:44:00.687Z,215.70
2022-12-13T15:46:33.195Z,193.40
2022-12-13T15:56:42.641Z,203.02
2022-12-13T15:59:28.467Z,174.43
2022-12-13T16:02:02.557Z,177.35
2022-12-13T16:04:32.976Z,168.10
2022-12-13T16:07:32.729Z,170.52
2022-12-13T16:10:01.512Z,195.65
2022-12-13T16:12:37.531Z,178.13
2022-12-13T16:15:28.499Z,172.30
2022-12-13T16:18:08.560Z,194.98
2022-12-13T16:20:37.088Z,227.93
2022-12-13T16:23:09.281Z,156.07
2022-12-13T16:25:38.129Z,173.63
2022-12-13T16:28:07.082Z,185.18
2022-12-13T16:31:04.185Z,181.57
2022-12-13T16:33:34.616Z,135.18
2022-12-13T16:36:03.536Z,134.18
2022-12-13T16:38:32.222Z,186.93
2022-12-13T16:41:08.318Z,153.32
2022-12-13T16:43:41.053Z,152.10
2022-12-13T16:47:17.505Z,124.07
2022-12-13T16:49:12.417Z,173.52
2022-12-13T16:51:45.012Z,139.50
2022-12-13T16:54:16.960Z,177.65
2022-12-13T16:56:45.888Z,160.10
2022-12-13T16:59:20.708Z,139.02
2022-12-13T17:01:50.355Z,150.45
2022-12-13T17:04:22.518Z,140.43
2022-12-13T17:06:54.805Z,156.77
2022-12-13T17:09:25.107Z,172.95
2022-12-13T17:11:57.378Z,177.48
2022-12-13T17:14:26.240Z,174.23
2022-12-13T17:16:55.174Z,172.45
2022-12-13T17:19:28.592Z,188.45
2022-12-13T17:21:58.039Z,178.75
2022-12-13T17:24:27.168Z,210.52
2022-12-13T17:26:56.978Z,177.05
2022-12-13T17:29:25.999Z,176.00
2022-12-13T17:32:02.206Z,190.30
2022-12-13T17:34:34.032Z,240.03
2022-12-13T17:37:08.566Z,187.10
2022-12-13T17:39:38.944Z,216.13
2022-12-13T17:42:07.711Z,219.93
2022-12-13T17:44:36.384Z,214.82
2022-12-13T17:47:05.213Z,198.07
2022-12-13T17:49:35.213Z,222.30
2022-12-13T17:52:03.775Z,194.50
2022-12-13T17:54:32.364Z,179.45
2022-12-13T17:57:01.065Z,164.98
2022-12-13T17:59:29.587Z,165.38
2022-12-13T18:01:58.274Z,177.10
2022-12-13T18:04:40.289Z,167.57
2022-12-13T18:07:10.407Z,165.30
2022-12-13T18:09:39.042Z,137.47
2022-12-13T18:12:08.484Z,173.07
2022-12-13T18:14:37.351Z,193.70
2022-12-13T18:17:06.614Z,185.90
2022-12-13T18:19:35.044Z,197.32
2022-12-13T18:22:03.599Z,179.65
2022-12-13T18:24:39.660Z,238.63
2022-12-13T18:27:08.026Z,200.93
2022-12-13T18:29:36.650Z,197.63
2022-12-13T18:32:05.149Z,217.32
2022-12-13T18:34:35.500Z,194.03
2022-12-13T18:37:04.123Z,190.00
2022-12-13T18:39:35.047Z,205.50
2022-12-13T18:42:03.581Z,198.67
2022-12-13T18:44:32.072Z,174.73
2022-12-13T18:47:04.858Z,177.57
2022-12-13T18:49:33.524Z,179.03
2022-12-13T18:52:06.282Z,177.97
2022-12-13T18:54:36.359Z,195.60
2022-12-13T18:57:05.042Z,200.53
2022-12-13T18:59:33.780Z,284.63
2022-12-13T19:02:14.059Z,200.00
2022-12-13T19:04:54.981Z,193.80
2022-12-13T19:07:24.954Z,204.37
2022-12-13T19:09:56.946Z,210.95
2022-12-13T19:12:27.982Z,237.03
2022-12-13T19:15:04.726Z,215.67
2022-12-13T19:17:35.596Z,213.03
2022-12-13T19:20:05.509Z,245.33
2022-12-13T19:22:36.339Z,204.97
2022-12-13T19:29:42.875Z,229.93
2022-12-13T19:37:12.176Z,224.83
2022-12-13T19:40:28.475Z,225.00
2022-12-13T19:43:52.763Z,221.73
2022-12-13T19:58:16.077Z,244.65
2022-12-13T20:00:45.888Z,197.53
2022-12-13T20:03:14.594Z,236.23
2022-12-13T20:05:45.944Z,227.23
2022-12-13T20:08:14.916Z,221.45
2022-12-13T20:10:46.487Z,219.00
2022-12-13T20:13:14.928Z,235.00
2022-12-13T20:15:49.647Z,216.90
2022-12-13T20:18:18.289Z,222.13
2022-12-13T20:21:10.453Z,245.30
2022-12-13T20:23:38.566Z,238.63
2022-12-13T20:26:09.270Z,233.50
2022-12-13T20:28:37.904Z,221.77
2022-12-13T20:31:10.137Z,226.73
2022-12-13T20:33:39.733Z,238.07
2022-12-13T20:36:27.189Z,228.27
2022-12-13T20:38:57.197Z,240.43
2022-12-13T20:41:27.566Z,234.67
2022-12-13T20:43:57.548Z,237.00
2022-12-13T20:46:28.428Z,233.83
2022-12-13T20:49:26.565Z,240.82
2022-12-13T21:00:13.956Z,225.67
2022-12-13T21:02:48.635Z,229.63
2022-12-13T21:09:00.303Z,211.75
2022-12-13T21:11:39.678Z,221.65
2022-12-13T21:14:30.335Z,215.85
2022-12-13T21:17:19.493Z,212.85
2022-12-13T21:20:21.092Z,213.07
2022-12-13T21:22:57.258Z,209.90
2022-12-13T21:26:22.814Z,215.90
2022-12-13T21:42:27.125Z,209.13
2022-12-13T21:45:01.854Z,205.63
2022-12-13T21:47:33.943Z,201.63
2022-12-13T21:50:53.565Z,191.73
2022-12-13T21:53:41.722Z,215.90
2022-12-13T21:56:38.272Z,201.23
2022-12-13T21:59:20.594Z,197.10
2022-12-13T22:02:09.291Z,195.93
2022-12-13T22:07:52.993Z,210.38
2022-12-13T22:10:22.172Z,210.32
2022-12-13T22:14:02.676Z,187.82
2022-12-13T22:16:36.993Z,195.80
2022-12-13T22:19:11.412Z,193.55
2022-12-13T22:21:54.287Z,202.88
2022-12-13T22:31:53.188Z,201.73
2022-12-13T22:35:01.547Z,200.50
2022-12-13T22:47:07.254Z,213.32
2022-12-13T22:53:24.961Z,211.05
2022-12-13T22:55:56.845Z,205.47
2022-12-13T22:58:27.636Z,185.18
2022-12-13T23:04:39.947Z,202.38
2022-12-13T23:07:08.833Z,195.38
2022-12-13T23:09:38.899Z,198.23
2022-12-13T23:12:25.546Z,167.45
2022-12-13T23:14:53.977Z,188.00
2022-12-13T23:17:22.590Z,185.05
2022-12-13T23:19:53.169Z,199.38
2022-12-13T23:22:23.365Z,182.32
2022-12-13T23:24:54.056Z,180.15
2022-12-13T23:27:24.569Z,197.77
2022-12-13T23:29:53.257Z,199.98
2022-12-13T23:32:21.915Z,176.75
2022-12-13T23:34:50.418Z,178.55
2022-12-13T23:37:21.860Z,175.90
2022-12-13T23:39:50.720Z,182.85
2022-12-13T23:42:20.753Z,190.40
2022-12-13T23:44:49.486Z,202.20
2022-12-13T23:47:18.215Z,195.70
2022-12-13T23:49:48.427Z,201.23
2022-12-13T23:52:17.050Z,199.77
2022-12-13T23:54:45.952Z,184.18
2022-12-13T23:57:14.702Z,174.65
2022-12-13T23:59:44.882Z,187.75
